sensor_id;sensor_type;location;lat;lon;timestamp;temperature;humidity
15288;DHT22;7745;48.708;9.026;2022-09-09T00:00:13;14.70;99.90
15288;DHT22;7745;48.708;9.026;2022-09-09T00:02:46;14.70;99.90
15288;DHT22;7745;48.708;9.026;2022-09-09T00:05:22;14.70;99.90
15288;DHT22;7745;48.708;9.026;2022-09-09T00:07:53;14.70;99.90
15288;DHT22;7745;48.708;9.026;2022-09-09T00:10:26;14.70;99.90
15288;DHT22;7745;48.708;9.026;2022-09-09T00:13:00;14.70;99.90
15288;DHT22;7745;48.708;9.026;2022-09-09T00:15:34;14.80;99.90
15288;DHT22;7745;48.708;9.026;2022-09-09T00:18:13;14.90;99.90
15288;DHT22;7745;48.708;9.026;2022-09-09T00:20:46;15.00;99.90
15288;DHT22;7745;48.708;9.026;2022-09-09T00:23:22;15.00;99.90
15288;DHT22;7745;48.708;9.026;2022-09-09T00:25:57;15.00;99.90
15288;DHT22;7745;48.708;9.026;2022-09-09T00:28:27;15.00;99.90
15288;DHT22;7745;48.708;9.026;2022-09-09T00:30:59;14.90;99.90
15288;DHT22;7745;48.708;9.026;2022-09-09T00:33:30;14.90;99.90
15288;DHT22;7745;48.708;9.026;2022-09-09T00:35:58;14.80;99.90
15288;DHT22;7745;48.708;9.026;2022-09-09T00:38:33;14.80;99.90
15288;DHT22;7745;48.708;9.026;2022-09-09T00:41:07;14.80;99.90
15288;DHT22;7745;48.708;9.026;2022-09-09T00:43:38;14.80;99.90
15288;DHT22;7745;48.708;9.026;2022-09-09T00:46:43;14.80;99.90
15288;DHT22;7745;48.708;9.026;2022-09-09T00:49:24;14.70;99.90
15288;DHT22;7745;48.708;9.026;2022-09-09T00:51:59;14.80;99.90
15288;DHT22;7745;48.708;9.026;2022-09-09T00:54:43;14.80;99.90
15288;DHT22;7745;48.708;9.026;2022-09-09T00:57:23;14.80;99.90
15288;DHT22;7745;48.708;9.026;2022-09-09T00:59:58;14.90;99.90
15288;DHT22;7745;48.708;9.026;2022-09-09T01:02:28;14.90;99.90
15288;DHT22;7745;48.708;9.026;2022-09-09T01:05:05;14.90;99.90
15288;DHT22;7745;48.708;9.026;2022-09-09T01:07:34;14.90;99.90
15288;DHT22;7745;48.708;9.026;2022-09-09T01:10:04;14.90;99.90
15288;DHT22;7745;48.708;9.026;2022-09-09T01:12:38;14.90;99.90
15288;DHT22;7745;48.708;9.026;2022-09-09T01:15:12;14.90;99.90
15288;DHT22;7745;48.708;9.026;2022-09-09T01:17:51;14.90;99.90
15288;DHT22;7745;48.708;9.026;2022-09-09T01:20:23;14.90;99.90
15288;DHT22;7745;48.708;9.026;2022-09-09T01:23:04;15.00;99.90
15288;DHT22;7745;48.708;9.026;2022-09-09T01:26:15;15.00;99.90
15288;DHT22;7745;48.708;9.026;2022-09-09T01:28:44;14.90;99.90
15288;DHT22;7745;48.708;9.026;2022-09-09T01:31:17;15.00;99.90
15288;DHT22;7745;48.708;9.026;2022-09-09T01:33:44;14.90;99.90
15288;DHT22;7745;48.708;9.026;2022-09-09T01:36:15;14.90;99.90
15288;DHT22;7745;48.708;9.026;2022-09-09T01:38:44;15.00;99.90
15288;DHT22;7745;48.708;9.026;2022-09-09T01:41:12;14.90;99.90
15288;DHT22;7745;48.708;9.026;2022-09-09T01:43:39;14.90;99.90
15288;DHT22;7745;48.708;9.026;2022-09-09T01:46:06;14.80;99.90
15288;DHT22;7745;48.708;9.026;2022-09-09T01:48:33;14.80;99.90
15288;DHT22;7745;48.708;9.026;2022-09-09T01:51:00;15.00;99.90
15288;DHT22;7745;48.708;9.026;2022-09-09T01:53:27;14.90;99.90
15288;DHT22;7745;48.708;9.026;2022-09-09T01:56:07;14.90;99.90
15288;DHT22;7745;48.708;9.026;2022-09-09T01:58:47;14.90;99.90
15288;DHT22;7745;48.708;9.026;2022-09-09T02:01:24;14.90;99.90
15288;DHT22;7745;48.708;9.026;2022-09-09T02:03:57;14.80;99.90
15288;DHT22;7745;48.708;9.026;2022-09-09T02:06:31;14.80;99.90
15288;DHT22;7745;48.708;9.026;2022-09-09T02:09:03;14.70;99.90
15288;DHT22;7745;48.708;9.026;2022-09-09T02:11:31;14.70;99.90
15288;DHT22;7745;48.708;9.026;2022-09-09T02:14:04;14.60;99.90
15288;DHT22;7745;48.708;9.026;2022-09-09T02:16:36;14.60;99.90
15288;DHT22;7745;48.708;9.026;2022-09-09T02:19:08;14.50;99.90
15288;DHT22;7745;48.708;9.026;2022-09-09T02:21:37;14.60;99.90
15288;DHT22;7745;48.708;9.026;2022-09-09T02:24:07;14.60;99.90
15288;DHT22;7745;48.708;9.026;2022-09-09T02:26:39;14.60;99.90
15288;DHT22;7745;48.708;9.026;2022-09-09T02:29:11;14.50;99.90
15288;DHT22;7745;48.708;9.026;2022-09-09T02:31:41;14.50;99.90
15288;DHT22;7745;48.708;9.026;2022-09-09T02:34:09;14.50;99.90
15288;DHT22;7745;48.708;9.026;2022-09-09T02:36:38;14.40;99.90
15288;DHT22;7745;48.708;9.026;2022-09-09T02:39:08;14.40;99.90
15288;DHT22;7745;48.708;9.026;2022-09-09T02:41:37;14.40;99.90
15288;DHT22;7745;48.708;9.026;2022-09-09T02:44:08;14.40;99.90
15288;DHT22;7745;48.708;9.026;2022-09-09T02:47:07;14.40;99.90
15288;DHT22;7745;48.708;9.026;2022-09-09T02:49:40;14.40;99.90
15288;DHT22;7745;48.708;9.026;2022-09-09T02:52:14;14.40;99.90
15288;DHT22;7745;48.708;9.026;2022-09-09T02:54:41;14.30;99.90
15288;DHT22;7745;48.708;9.026;2022-09-09T02:57:11;14.30;99.90
15288;DHT22;7745;48.708;9.026;2022-09-09T02:59:40;14.20;99.90
15288;DHT22;7745;48.708;9.026;2022-09-09T03:02:07;14.20;99.90
15288;DHT22;7745;48.708;9.026;2022-09-09T03:04:35;14.10;99.90
15288;DHT22;7745;48.708;9.026;2022-09-09T03:07:02;14.10;99.90
15288;DHT22;7745;48.708;9.026;2022-09-09T03:09:29;14.00;99.90
15288;DHT22;7745;48.708;9.026;2022-09-09T03:11:56;14.00;99.90
15288;DHT22;7745;48.708;9.026;2022-09-09T03:14:23;14.10;99.90
15288;DHT22;7745;48.708;9.026;2022-09-09T03:16:52;14.00;99.90
15288;DHT22;7745;48.708;9.026;2022-09-09T03:19:19;14.00;99.90
15288;DHT22;7745;48.708;9.026;2022-09-09T03:21:47;14.00;99.90
15288;DHT22;7745;48.708;9.026;2022-09-09T03:24:14;14.00;99.90
15288;DHT22;7745;48.708;9.026;2022-09-09T03:26:41;14.10;99.90
15288;DHT22;7745;48.708;9.026;2022-09-09T03:29:10;14.30;99.90
15288;DHT22;7745;48.708;9.026;2022-09-09T03:31:38;14.20;99.90
15288;DHT22;7745;48.708;9.026;2022-09-09T03:34:06;14.30;99.90
15288;DHT22;7745;48.708;9.026;2022-09-09T03:36:33;14.30;99.90
15288;DHT22;7745;48.708;9.026;2022-09-09T03:39:00;14.30;99.90
15288;DHT22;7745;48.708;9.026;2022-09-09T03:41:29;14.30;99.90
15288;DHT22;7745;48.708;9.026;2022-09-09T03:43:55;14.40;99.90
15288;DHT22;7745;48.708;9.026;2022-09-09T03:46:24;14.40;99.90
15288;DHT22;7745;48.708;9.026;2022-09-09T03:48:51;14.40;99.90
15288;DHT22;7745;48.708;9.026;2022-09-09T03:51:20;14.40;99.90
15288;DHT22;7745;48.708;9.026;2022-09-09T03:53:47;14.30;99.90
15288;DHT22;7745;48.708;9.026;2022-09-09T03:56:14;14.20;99.90
15288;DHT22;7745;48.708;9.026;2022-09-09T03:58:41;14.10;99.90
15288;DHT22;7745;48.708;9.026;2022-09-09T04:01:09;14.10;99.90
15288;DHT22;7745;48.708;9.026;2022-09-09T04:03:39;14.00;99.90
15288;DHT22;7745;48.708;9.026;2022-09-09T04:06:07;13.90;99.90
15288;DHT22;7745;48.708;9.026;2022-09-09T04:08:36;13.90;99.90
15288;DHT22;7745;48.708;9.026;2022-09-09T04:11:04;13.80;99.90
15288;DHT22;7745;48.708;9.026;2022-09-09T04:13:32;13.80;99.90
15288;DHT22;7745;48.708;9.026;2022-09-09T04:16:01;13.80;99.90
15288;DHT22;7745;48.708;9.026;2022-09-09T04:18:29;13.80;99.90
15288;DHT22;7745;48.708;9.026;2022-09-09T04:20:56;13.80;99.90
15288;DHT22;7745;48.708;9.026;2022-09-09T04:23:24;13.80;99.90
15288;DHT22;7745;48.708;9.026;2022-09-09T04:25:55;13.90;99.90
15288;DHT22;7745;48.708;9.026;2022-09-09T04:28:24;14.00;99.90
15288;DHT22;7745;48.708;9.026;2022-09-09T04:30:51;14.10;99.90
15288;DHT22;7745;48.708;9.026;2022-09-09T04:33:18;14.20;99.90
15288;DHT22;7745;48.708;9.026;2022-09-09T04:35:47;14.30;99.90
15288;DHT22;7745;48.708;9.026;2022-09-09T04:38:14;14.40;99.90
15288;DHT22;7745;48.708;9.026;2022-09-09T04:40:42;14.40;99.90
15288;DHT22;7745;48.708;9.026;2022-09-09T04:43:11;14.50;99.90
15288;DHT22;7745;48.708;9.026;2022-09-09T04:45:38;14.50;99.90
15288;DHT22;7745;48.708;9.026;2022-09-09T04:48:06;14.50;99.90
15288;DHT22;7745;48.708;9.026;2022-09-09T04:50:32;14.50;99.90
15288;DHT22;7745;48.708;9.026;2022-09-09T04:53:00;14.60;99.90
15288;DHT22;7745;48.708;9.026;2022-09-09T04:55:27;14.60;99.90
15288;DHT22;7745;48.708;9.026;2022-09-09T04:57:54;14.60;99.90
15288;DHT22;7745;48.708;9.026;2022-09-09T05:00:24;14.60;99.90
15288;DHT22;7745;48.708;9.026;2022-09-09T05:02:51;14.60;99.90
15288;DHT22;7745;48.708;9.026;2022-09-09T05:05:18;14.70;99.90
15288;DHT22;7745;48.708;9.026;2022-09-09T05:07:45;14.60;99.90
15288;DHT22;7745;48.708;9.026;2022-09-09T05:10:12;14.60;99.90
15288;DHT22;7745;48.708;9.026;2022-09-09T05:12:42;14.60;99.90
15288;DHT22;7745;48.708;9.026;2022-09-09T05:15:09;14.60;99.90
15288;DHT22;7745;48.708;9.026;2022-09-09T05:17:38;14.60;99.90
15288;DHT22;7745;48.708;9.026;2022-09-09T05:20:06;14.70;99.90
15288;DHT22;7745;48.708;9.026;2022-09-09T05:22:34;14.60;99.90
15288;DHT22;7745;48.708;9.026;2022-09-09T05:25:01;14.70;99.90
15288;DHT22;7745;48.708;9.026;2022-09-09T05:27:28;14.80;99.90
15288;DHT22;7745;48.708;9.026;2022-09-09T05:29:56;14.80;99.90
15288;DHT22;7745;48.708;9.026;2022-09-09T05:32:23;14.90;99.90
15288;DHT22;7745;48.708;9.026;2022-09-09T05:34:52;14.90;99.90
15288;DHT22;7745;48.708;9.026;2022-09-09T05:37:19;14.90;99.90
15288;DHT22;7745;48.708;9.026;2022-09-09T05:39:45;14.90;99.90
15288;DHT22;7745;48.708;9.026;2022-09-09T05:42:13;15.00;99.90
15288;DHT22;7745;48.708;9.026;2022-09-09T05:44:39;15.00;99.90
15288;DHT22;7745;48.708;9.026;2022-09-09T05:47:10;15.20;99.90
15288;DHT22;7745;48.708;9.026;2022-09-09T05:49:37;15.10;99.90
15288;DHT22;7745;48.708;9.026;2022-09-09T05:52:05;15.10;99.90
15288;DHT22;7745;48.708;9.026;2022-09-09T05:54:32;15.10;99.90
15288;DHT22;7745;48.708;9.026;2022-09-09T05:56:59;15.20;99.90
15288;DHT22;7745;48.708;9.026;2022-09-09T05:59:25;15.20;99.90
15288;DHT22;7745;48.708;9.026;2022-09-09T06:01:53;15.30;99.90
15288;DHT22;7745;48.708;9.026;2022-09-09T06:04:21;15.30;99.90
15288;DHT22;7745;48.708;9.026;2022-09-09T06:06:49;15.30;99.90
15288;DHT22;7745;48.708;9.026;2022-09-09T06:09:18;15.30;99.90
15288;DHT22;7745;48.708;9.026;2022-09-09T06:11:45;15.40;99.90
15288;DHT22;7745;48.708;9.026;2022-09-09T06:14:12;15.40;99.90
15288;DHT22;7745;48.708;9.026;2022-09-09T06:16:39;15.50;99.90
15288;DHT22;7745;48.708;9.026;2022-09-09T06:19:09;15.50;99.90
15288;DHT22;7745;48.708;9.026;2022-09-09T06:21:37;15.40;99.90
15288;DHT22;7745;48.708;9.026;2022-09-09T06:24:05;15.50;99.90
15288;DHT22;7745;48.708;9.026;2022-09-09T06:26:35;15.50;99.90
15288;DHT22;7745;48.708;9.026;2022-09-09T06:29:03;15.60;99.90
15288;DHT22;7745;48.708;9.026;2022-09-09T06:31:33;15.70;99.90
15288;DHT22;7745;48.708;9.026;2022-09-09T06:34:04;15.70;99.90
15288;DHT22;7745;48.708;9.026;2022-09-09T06:36:33;15.70;99.90
15288;DHT22;7745;48.708;9.026;2022-09-09T06:39:00;15.80;99.90
15288;DHT22;7745;48.708;9.026;2022-09-09T06:41:29;15.80;99.90
15288;DHT22;7745;48.708;9.026;2022-09-09T06:43:58;15.90;99.90
15288;DHT22;7745;48.708;9.026;2022-09-09T06:46:25;16.00;99.90
15288;DHT22;7745;48.708;9.026;2022-09-09T06:48:54;15.90;99.90
15288;DHT22;7745;48.708;9.026;2022-09-09T06:51:24;16.10;99.90
15288;DHT22;7745;48.708;9.026;2022-09-09T06:53:53;16.20;99.90
15288;DHT22;7745;48.708;9.026;2022-09-09T06:56:23;16.10;99.90
15288;DHT22;7745;48.708;9.026;2022-09-09T06:58:51;16.20;99.90
15288;DHT22;7745;48.708;9.026;2022-09-09T07:01:21;16.20;99.90
15288;DHT22;7745;48.708;9.026;2022-09-09T07:03:50;16.30;99.90
15288;DHT22;7745;48.708;9.026;2022-09-09T07:06:20;16.40;99.90
15288;DHT22;7745;48.708;9.026;2022-09-09T07:08:50;16.40;99.90
15288;DHT22;7745;48.708;9.026;2022-09-09T07:11:18;16.40;99.90
15288;DHT22;7745;48.708;9.026;2022-09-09T07:13:45;16.50;99.90
15288;DHT22;7745;48.708;9.026;2022-09-09T07:16:14;16.60;99.90
15288;DHT22;7745;48.708;9.026;2022-09-09T07:18:43;16.80;99.90
15288;DHT22;7745;48.708;9.026;2022-09-09T07:21:11;16.80;99.90
15288;DHT22;7745;48.708;9.026;2022-09-09T07:23:39;16.90;99.90
15288;DHT22;7745;48.708;9.026;2022-09-09T07:26:08;17.10;99.90
15288;DHT22;7745;48.708;9.026;2022-09-09T07:28:36;17.10;99.90
15288;DHT22;7745;48.708;9.026;2022-09-09T07:31:14;17.30;99.90
15288;DHT22;7745;48.708;9.026;2022-09-09T07:33:45;17.30;99.90
15288;DHT22;7745;48.708;9.026;2022-09-09T07:36:17;17.60;99.90
15288;DHT22;7745;48.708;9.026;2022-09-09T07:38:47;17.70;99.90
15288;DHT22;7745;48.708;9.026;2022-09-09T07:41:17;17.70;99.90
15288;DHT22;7745;48.708;9.026;2022-09-09T07:43:46;17.50;99.90
15288;DHT22;7745;48.708;9.026;2022-09-09T07:46:15;17.50;99.90
15288;DHT22;7745;48.708;9.026;2022-09-09T07:48:45;17.60;99.90
15288;DHT22;7745;48.708;9.026;2022-09-09T07:51:14;17.60;99.90
15288;DHT22;7745;48.708;9.026;2022-09-09T07:53:43;17.70;99.90
15288;DHT22;7745;48.708;9.026;2022-09-09T07:56:12;17.80;99.90
15288;DHT22;7745;48.708;9.026;2022-09-09T07:58:40;17.90;99.90
15288;DHT22;7745;48.708;9.026;2022-09-09T08:01:09;17.90;99.90
15288;DHT22;7745;48.708;9.026;2022-09-09T08:03:37;18.00;99.90
15288;DHT22;7745;48.708;9.026;2022-09-09T08:06:07;18.00;99.90
15288;DHT22;7745;48.708;9.026;2022-09-09T08:08:35;18.00;99.90
15288;DHT22;7745;48.708;9.026;2022-09-09T08:11:04;18.10;99.90
15288;DHT22;7745;48.708;9.026;2022-09-09T08:13:33;18.20;99.90
15288;DHT22;7745;48.708;9.026;2022-09-09T08:16:05;18.20;99.90
15288;DHT22;7745;48.708;9.026;2022-09-09T08:18:32;18.30;99.90
15288;DHT22;7745;48.708;9.026;2022-09-09T08:21:07;18.30;99.90
15288;DHT22;7745;48.708;9.026;2022-09-09T08:23:34;18.50;99.90
15288;DHT22;7745;48.708;9.026;2022-09-09T08:26:05;18.60;99.90
15288;DHT22;7745;48.708;9.026;2022-09-09T08:28:33;18.60;99.90
15288;DHT22;7745;48.708;9.026;2022-09-09T08:31:11;18.60;99.90
15288;DHT22;7745;48.708;9.026;2022-09-09T08:33:39;18.70;99.90
15288;DHT22;7745;48.708;9.026;2022-09-09T08:36:10;18.80;99.90
15288;DHT22;7745;48.708;9.026;2022-09-09T08:38:37;18.90;99.90
15288;DHT22;7745;48.708;9.026;2022-09-09T08:41:14;18.90;99.90
15288;DHT22;7745;48.708;9.026;2022-09-09T08:43:46;18.90;99.90
15288;DHT22;7745;48.708;9.026;2022-09-09T08:46:19;19.10;99.90
15288;DHT22;7745;48.708;9.026;2022-09-09T08:48:56;19.20;99.90
15288;DHT22;7745;48.708;9.026;2022-09-09T08:51:27;19.30;99.90
15288;DHT22;7745;48.708;9.026;2022-09-09T08:53:59;19.60;99.90
15288;DHT22;7745;48.708;9.026;2022-09-09T08:56:27;19.40;99.90
15288;DHT22;7745;48.708;9.026;2022-09-09T08:58:56;19.30;99.90
15288;DHT22;7745;48.708;9.026;2022-09-09T09:01:44;19.20;99.90
15288;DHT22;7745;48.708;9.026;2022-09-09T09:04:42;18.90;99.90
15288;DHT22;7745;48.708;9.026;2022-09-09T09:07:21;18.80;99.90
15288;DHT22;7745;48.708;9.026;2022-09-09T09:09:58;18.50;99.90
15288;DHT22;7745;48.708;9.026;2022-09-09T09:12:31;18.20;99.90
15288;DHT22;7745;48.708;9.026;2022-09-09T09:15:00;18.00;99.90
15288;DHT22;7745;48.708;9.026;2022-09-09T09:17:28;17.80;99.90
15288;DHT22;7745;48.708;9.026;2022-09-09T09:19:58;17.60;99.90
15288;DHT22;7745;48.708;9.026;2022-09-09T09:22:32;17.40;99.90
15288;DHT22;7745;48.708;9.026;2022-09-09T09:25:04;17.30;99.90
15288;DHT22;7745;48.708;9.026;2022-09-09T09:27:40;17.20;99.90
15288;DHT22;7745;48.708;9.026;2022-09-09T09:30:14;17.20;99.90
15288;DHT22;7745;48.708;9.026;2022-09-09T09:32:54;17.40;99.90
15288;DHT22;7745;48.708;9.026;2022-09-09T09:35:22;17.60;99.90
15288;DHT22;7745;48.708;9.026;2022-09-09T09:37:50;17.90;99.90
15288;DHT22;7745;48.708;9.026;2022-09-09T09:40:19;18.10;99.90
15288;DHT22;7745;48.708;9.026;2022-09-09T09:42:51;18.20;99.90
15288;DHT22;7745;48.708;9.026;2022-09-09T09:45:27;18.40;99.90
15288;DHT22;7745;48.708;9.026;2022-09-09T09:48:01;18.40;99.90
15288;DHT22;7745;48.708;9.026;2022-09-09T09:50:29;18.70;99.90
15288;DHT22;7745;48.708;9.026;2022-09-09T09:53:00;18.90;99.90
15288;DHT22;7745;48.708;9.026;2022-09-09T09:55:28;18.90;99.90
15288;DHT22;7745;48.708;9.026;2022-09-09T09:58:02;19.00;99.90
15288;DHT22;7745;48.708;9.026;2022-09-09T10:00:29;19.20;99.90
15288;DHT22;7745;48.708;9.026;2022-09-09T10:02:56;19.30;99.90
15288;DHT22;7745;48.708;9.026;2022-09-09T10:05:24;19.30;99.90
15288;DHT22;7745;48.708;9.026;2022-09-09T10:08:04;19.50;99.90
15288;DHT22;7745;48.708;9.026;2022-09-09T10:10:43;19.60;99.90
15288;DHT22;7745;48.708;9.026;2022-09-09T10:13:18;19.80;99.90
15288;DHT22;7745;48.708;9.026;2022-09-09T10:15:54;19.90;99.90
15288;DHT22;7745;48.708;9.026;2022-09-09T10:18:45;19.90;99.90
15288;DHT22;7745;48.708;9.026;2022-09-09T10:21:21;19.70;99.90
15288;DHT22;7745;48.708;9.026;2022-09-09T10:24:08;19.80;99.90
15288;DHT22;7745;48.708;9.026;2022-09-09T10:26:44;19.90;99.90
15288;DHT22;7745;48.708;9.026;2022-09-09T10:29:27;20.00;99.90
15288;DHT22;7745;48.708;9.026;2022-09-09T10:32:24;20.10;99.90
15288;DHT22;7745;48.708;9.026;2022-09-09T10:35:27;20.20;99.90
15288;DHT22;7745;48.708;9.026;2022-09-09T10:38:16;20.20;99.90
15288;DHT22;7745;48.708;9.026;2022-09-09T10:40:59;20.30;99.90
15288;DHT22;7745;48.708;9.026;2022-09-09T10:43:43;20.30;99.90
15288;DHT22;7745;48.708;9.026;2022-09-09T10:46:14;20.30;99.90
15288;DHT22;7745;48.708;9.026;2022-09-09T10:49:02;20.50;99.90
15288;DHT22;7745;48.708;9.026;2022-09-09T10:51:39;20.50;99.90
15288;DHT22;7745;48.708;9.026;2022-09-09T10:54:23;20.70;99.90
15288;DHT22;7745;48.708;9.026;2022-09-09T10:56:56;20.80;99.90
15288;DHT22;7745;48.708;9.026;2022-09-09T10:59:27;20.80;99.90
15288;DHT22;7745;48.708;9.026;2022-09-09T11:01:59;21.00;99.90
15288;DHT22;7745;48.708;9.026;2022-09-09T11:04:29;21.00;99.90
15288;DHT22;7745;48.708;9.026;2022-09-09T11:07:02;21.00;99.90
15288;DHT22;7745;48.708;9.026;2022-09-09T11:09:36;21.00;99.90
15288;DHT22;7745;48.708;9.026;2022-09-09T11:12:10;20.70;99.90
15288;DHT22;7745;48.708;9.026;2022-09-09T11:14:42;20.50;99.90
15288;DHT22;7745;48.708;9.026;2022-09-09T11:17:12;20.30;99.90
15288;DHT22;7745;48.708;9.026;2022-09-09T11:19:41;20.00;99.90
15288;DHT22;7745;48.708;9.026;2022-09-09T11:22:18;19.70;99.90
15288;DHT22;7745;48.708;9.026;2022-09-09T11:24:50;19.30;99.90
15288;DHT22;7745;48.708;9.026;2022-09-09T11:27:23;19.10;99.90
15288;DHT22;7745;48.708;9.026;2022-09-09T11:30:19;18.80;99.90
15288;DHT22;7745;48.708;9.026;2022-09-09T11:33:04;18.70;99.90
15288;DHT22;7745;48.708;9.026;2022-09-09T11:35:45;18.60;99.90
15288;DHT22;7745;48.708;9.026;2022-09-09T11:38:21;18.50;99.90
15288;DHT22;7745;48.708;9.026;2022-09-09T11:40:55;18.30;99.90
15288;DHT22;7745;48.708;9.026;2022-09-09T11:43:28;18.30;99.90
15288;DHT22;7745;48.708;9.026;2022-09-09T11:45:59;18.40;99.90
15288;DHT22;7745;48.708;9.026;2022-09-09T11:48:32;18.60;99.90
15288;DHT22;7745;48.708;9.026;2022-09-09T11:51:03;18.60;99.90
15288;DHT22;7745;48.708;9.026;2022-09-09T11:53:31;18.60;99.90
15288;DHT22;7745;48.708;9.026;2022-09-09T11:56:03;18.60;99.90
15288;DHT22;7745;48.708;9.026;2022-09-09T11:58:37;18.70;99.90
15288;DHT22;7745;48.708;9.026;2022-09-09T12:01:25;18.80;99.90
15288;DHT22;7745;48.708;9.026;2022-09-09T12:04:11;18.70;99.90
15288;DHT22;7745;48.708;9.026;2022-09-09T12:06:44;18.70;99.90
15288;DHT22;7745;48.708;9.026;2022-09-09T12:09:27;18.70;99.90
15288;DHT22;7745;48.708;9.026;2022-09-09T12:12:21;18.80;99.90
15288;DHT22;7745;48.708;9.026;2022-09-09T12:15:01;18.90;99.90
15288;DHT22;7745;48.708;9.026;2022-09-09T12:17:29;19.00;99.90
15288;DHT22;7745;48.708;9.026;2022-09-09T12:20:02;19.10;99.90
15288;DHT22;7745;48.708;9.026;2022-09-09T12:22:37;19.20;99.90
15288;DHT22;7745;48.708;9.026;2022-09-09T12:25:18;19.30;99.90
15288;DHT22;7745;48.708;9.026;2022-09-09T12:27:55;19.40;99.90
15288;DHT22;7745;48.708;9.026;2022-09-09T12:30:32;19.60;99.90
15288;DHT22;7745;48.708;9.026;2022-09-09T12:33:02;19.70;99.90
15288;DHT22;7745;48.708;9.026;2022-09-09T12:35:29;19.70;99.90
15288;DHT22;7745;48.708;9.026;2022-09-09T12:37:59;19.70;99.90
15288;DHT22;7745;48.708;9.026;2022-09-09T12:40:31;19.70;99.90
15288;DHT22;7745;48.708;9.026;2022-09-09T12:43:01;19.70;99.90
15288;DHT22;7745;48.708;9.026;2022-09-09T12:45:31;19.70;99.90
15288;DHT22;7745;48.708;9.026;2022-09-09T12:48:01;19.60;99.90
15288;DHT22;7745;48.708;9.026;2022-09-09T12:50:31;19.50;99.90
15288;DHT22;7745;48.708;9.026;2022-09-09T12:53:01;19.50;99.90
15288;DHT22;7745;48.708;9.026;2022-09-09T12:55:30;19.40;99.90
15288;DHT22;7745;48.708;9.026;2022-09-09T12:57:59;19.30;99.90
15288;DHT22;7745;48.708;9.026;2022-09-09T13:00:31;19.30;99.90
15288;DHT22;7745;48.708;9.026;2022-09-09T13:03:00;19.30;99.90
15288;DHT22;7745;48.708;9.026;2022-09-09T13:05:28;19.40;99.90
15288;DHT22;7745;48.708;9.026;2022-09-09T13:08:04;19.50;99.90
15288;DHT22;7745;48.708;9.026;2022-09-09T13:10:33;19.60;99.90
15288;DHT22;7745;48.708;9.026;2022-09-09T13:13:02;19.70;99.90
15288;DHT22;7745;48.708;9.026;2022-09-09T13:15:31;19.90;99.90
15288;DHT22;7745;48.708;9.026;2022-09-09T13:18:04;20.10;99.90
15288;DHT22;7745;48.708;9.026;2022-09-09T13:20:33;20.20;99.90
15288;DHT22;7745;48.708;9.026;2022-09-09T13:23:00;20.30;99.90
15288;DHT22;7745;48.708;9.026;2022-09-09T13:25:28;20.40;99.90
15288;DHT22;7745;48.708;9.026;2022-09-09T13:27:58;20.30;99.90
15288;DHT22;7745;48.708;9.026;2022-09-09T13:30:27;20.10;99.90
15288;DHT22;7745;48.708;9.026;2022-09-09T13:33:20;20.10;99.90
15288;DHT22;7745;48.708;9.026;2022-09-09T13:35:50;20.00;99.90
15288;DHT22;7745;48.708;9.026;2022-09-09T13:38:18;20.00;99.90
15288;DHT22;7745;48.708;9.026;2022-09-09T13:40:57;20.10;99.90
15288;DHT22;7745;48.708;9.026;2022-09-09T13:43:27;20.20;99.90
15288;DHT22;7745;48.708;9.026;2022-09-09T13:45:57;20.30;99.90
15288;DHT22;7745;48.708;9.026;2022-09-09T13:48:26;20.40;99.90
15288;DHT22;7745;48.708;9.026;2022-09-09T13:50:58;20.50;99.90
15288;DHT22;7745;48.708;9.026;2022-09-09T13:53:25;20.40;99.90
15288;DHT22;7745;48.708;9.026;2022-09-09T13:55:52;20.60;99.90
15288;DHT22;7745;48.708;9.026;2022-09-09T13:58:19;20.60;99.90
15288;DHT22;7745;48.708;9.026;2022-09-09T14:00:48;20.50;99.90
15288;DHT22;7745;48.708;9.026;2022-09-09T14:03:15;20.50;99.90
15288;DHT22;7745;48.708;9.026;2022-09-09T14:05:43;20.60;99.90
15288;DHT22;7745;48.708;9.026;2022-09-09T14:08:20;20.60;99.90
15288;DHT22;7745;48.708;9.026;2022-09-09T14:10:48;20.70;99.90
15288;DHT22;7745;48.708;9.026;2022-09-09T14:13:15;20.90;99.90
15288;DHT22;7745;48.708;9.026;2022-09-09T14:15:41;20.80;99.90
15288;DHT22;7745;48.708;9.026;2022-09-09T14:18:10;20.90;99.90
15288;DHT22;7745;48.708;9.026;2022-09-09T14:20:37;21.00;99.90
15288;DHT22;7745;48.708;9.026;2022-09-09T14:23:05;21.00;99.90
15288;DHT22;7745;48.708;9.026;2022-09-09T14:25:33;20.90;99.90
15288;DHT22;7745;48.708;9.026;2022-09-09T14:28:00;20.90;99.90
15288;DHT22;7745;48.708;9.026;2022-09-09T14:30:27;20.90;99.90
15288;DHT22;7745;48.708;9.026;2022-09-09T14:32:54;20.90;99.90
15288;DHT22;7745;48.708;9.026;2022-09-09T14:35:21;20.90;99.90
15288;DHT22;7745;48.708;9.026;2022-09-09T14:37:47;20.80;99.90
15288;DHT22;7745;48.708;9.026;2022-09-09T14:40:16;20.70;99.90
15288;DHT22;7745;48.708;9.026;2022-09-09T14:42:42;20.70;99.90
15288;DHT22;7745;48.708;9.026;2022-09-09T14:45:14;20.60;99.90
15288;DHT22;7745;48.708;9.026;2022-09-09T14:47:46;20.80;99.90
15288;DHT22;7745;48.708;9.026;2022-09-09T14:50:13;20.70;99.90
15288;DHT22;7745;48.708;9.026;2022-09-09T14:52:39;21.00;99.90
15288;DHT22;7745;48.708;9.026;2022-09-09T14:55:07;21.00;99.90
15288;DHT22;7745;48.708;9.026;2022-09-09T14:57:53;21.10;99.90
15288;DHT22;7745;48.708;9.026;2022-09-09T15:00:26;21.10;99.90
15288;DHT22;7745;48.708;9.026;2022-09-09T15:02:53;21.10;99.90
15288;DHT22;7745;48.708;9.026;2022-09-09T15:05:24;21.00;99.90
15288;DHT22;7745;48.708;9.026;2022-09-09T15:07:51;20.90;99.90
15288;DHT22;7745;48.708;9.026;2022-09-09T15:10:17;20.90;99.90
15288;DHT22;7745;48.708;9.026;2022-09-09T15:12:44;20.80;99.90
15288;DHT22;7745;48.708;9.026;2022-09-09T15:15:12;20.70;99.90
15288;DHT22;7745;48.708;9.026;2022-09-09T15:17:39;20.70;99.90
15288;DHT22;7745;48.708;9.026;2022-09-09T15:20:07;20.60;99.90
15288;DHT22;7745;48.708;9.026;2022-09-09T15:22:34;20.90;99.90
15288;DHT22;7745;48.708;9.026;2022-09-09T15:25:03;21.00;99.90
15288;DHT22;7745;48.708;9.026;2022-09-09T15:27:31;21.10;99.90
15288;DHT22;7745;48.708;9.026;2022-09-09T15:29:59;21.20;99.90
15288;DHT22;7745;48.708;9.026;2022-09-09T15:32:27;21.20;99.90
15288;DHT22;7745;48.708;9.026;2022-09-09T15:34:54;21.20;99.90
15288;DHT22;7745;48.708;9.026;2022-09-09T15:37:21;20.90;99.90
15288;DHT22;7745;48.708;9.026;2022-09-09T15:39:48;20.90;99.90
15288;DHT22;7745;48.708;9.026;2022-09-09T15:42:15;20.70;99.90
15288;DHT22;7745;48.708;9.026;2022-09-09T15:44:42;20.50;99.90
15288;DHT22;7745;48.708;9.026;2022-09-09T15:47:11;20.50;99.90
15288;DHT22;7745;48.708;9.026;2022-09-09T15:49:40;20.40;99.90
15288;DHT22;7745;48.708;9.026;2022-09-09T15:52:10;20.10;99.90
15288;DHT22;7745;48.708;9.026;2022-09-09T15:54:37;20.10;99.90
15288;DHT22;7745;48.708;9.026;2022-09-09T15:57:05;20.00;99.90
15288;DHT22;7745;48.708;9.026;2022-09-09T15:59:32;20.00;99.90
15288;DHT22;7745;48.708;9.026;2022-09-09T16:02:00;19.80;99.90
15288;DHT22;7745;48.708;9.026;2022-09-09T16:04:27;19.80;99.90
15288;DHT22;7745;48.708;9.026;2022-09-09T16:07:00;19.80;99.90
15288;DHT22;7745;48.708;9.026;2022-09-09T16:09:27;19.80;99.90